sensor_id;sensor_type;location;lat;lon;timestamp;temperature;humidity
9305;DHT22;4690;52.422;13.486;2023-12-14T00:09:42;6.00;99.90
9305;DHT22;4690;52.422;13.486;2023-12-14T00:12:07;6.00;99.90
9305;DHT22;4690;52.422;13.486;2023-12-14T00:14:33;6.00;99.90
9305;DHT22;4690;52.422;13.486;2023-12-14T00:16:59;6.00;99.90
9305;DHT22;4690;52.422;13.486;2023-12-14T00:19:25;6.00;99.90
9305;DHT22;4690;52.422;13.486;2023-12-14T00:21:51;6.00;99.90
9305;DHT22;4690;52.422;13.486;2023-12-14T00:24:17;6.00;99.90
9305;DHT22;4690;52.422;13.486;2023-12-14T00:26:42;6.00;99.90
9305;DHT22;4690;52.422;13.486;2023-12-14T00:29:08;6.00;99.90
9305;DHT22;4690;52.422;13.486;2023-12-14T00:31:34;6.00;99.90
9305;DHT22;4690;52.422;13.486;2023-12-14T00:33:59;6.00;99.90
9305;DHT22;4690;52.422;13.486;2023-12-14T00:36:25;5.90;99.90
9305;DHT22;4690;52.422;13.486;2023-12-14T00:38:51;5.90;99.90
9305;DHT22;4690;52.422;13.486;2023-12-14T00:41:17;5.90;99.90
9305;DHT22;4690;52.422;13.486;2023-12-14T00:43:42;6.00;99.90
9305;DHT22;4690;52.422;13.486;2023-12-14T00:46:08;6.00;99.90
9305;DHT22;4690;52.422;13.486;2023-12-14T00:48:34;6.00;99.90
9305;DHT22;4690;52.422;13.486;2023-12-14T00:51:00;6.00;99.90
9305;DHT22;4690;52.422;13.486;2023-12-14T00:53:26;5.90;99.90
9305;DHT22;4690;52.422;13.486;2023-12-14T00:55:52;5.90;99.90
9305;DHT22;4690;52.422;13.486;2023-12-14T00:58:17;5.80;99.90
9305;DHT22;4690;52.422;13.486;2023-12-14T01:00:43;5.80;99.90
9305;DHT22;4690;52.422;13.486;2023-12-14T01:03:09;5.80;99.90
9305;DHT22;4690;52.422;13.486;2023-12-14T01:05:34;5.80;99.90
9305;DHT22;4690;52.422;13.486;2023-12-14T01:08:00;5.80;99.90
9305;DHT22;4690;52.422;13.486;2023-12-14T01:10:26;5.80;99.90
9305;DHT22;4690;52.422;13.486;2023-12-14T01:12:52;5.80;99.90
9305;DHT22;4690;52.422;13.486;2023-12-14T01:15:17;5.70;99.90
9305;DHT22;4690;52.422;13.486;2023-12-14T01:17:43;5.70;99.90
9305;DHT22;4690;52.422;13.486;2023-12-14T01:20:09;5.70;99.90
9305;DHT22;4690;52.422;13.486;2023-12-14T01:22:35;5.60;99.90
9305;DHT22;4690;52.422;13.486;2023-12-14T01:25:01;5.70;99.90
9305;DHT22;4690;52.422;13.486;2023-12-14T01:27:26;5.70;99.90
9305;DHT22;4690;52.422;13.486;2023-12-14T01:29:52;5.70;99.90
9305;DHT22;4690;52.422;13.486;2023-12-14T01:32:18;5.60;99.90
9305;DHT22;4690;52.422;13.486;2023-12-14T01:34:44;5.50;99.90
9305;DHT22;4690;52.422;13.486;2023-12-14T01:37:10;5.60;99.90
9305;DHT22;4690;52.422;13.486;2023-12-14T01:39:36;5.40;99.90
9305;DHT22;4690;52.422;13.486;2023-12-14T01:42:01;5.30;99.90
9305;DHT22;4690;52.422;13.486;2023-12-14T01:44:27;5.30;99.90
9305;DHT22;4690;52.422;13.486;2023-12-14T01:46:53;5.40;99.90
9305;DHT22;4690;52.422;13.486;2023-12-14T01:49:18;5.40;99.90
9305;DHT22;4690;52.422;13.486;2023-12-14T01:51:44;5.40;99.90
9305;DHT22;4690;52.422;13.486;2023-12-14T01:54:10;5.30;99.90
9305;DHT22;4690;52.422;13.486;2023-12-14T01:56:36;5.30;99.90
9305;DHT22;4690;52.422;13.486;2023-12-14T01:59:01;5.20;99.90
9305;DHT22;4690;52.422;13.486;2023-12-14T02:01:46;5.30;99.90
9305;DHT22;4690;52.422;13.486;2023-12-14T02:04:17;5.30;99.90
9305;DHT22;4690;52.422;13.486;2023-12-14T02:06:42;5.30;99.90
9305;DHT22;4690;52.422;13.486;2023-12-14T02:09:08;5.30;99.90
9305;DHT22;4690;52.422;13.486;2023-12-14T02:11:35;5.20;99.90
9305;DHT22;4690;52.422;13.486;2023-12-14T02:14:11;5.20;99.90
9305;DHT22;4690;52.422;13.486;2023-12-14T02:16:37;5.20;99.90
9305;DHT22;4690;52.422;13.486;2023-12-14T02:19:05;5.30;99.90
9305;DHT22;4690;52.422;13.486;2023-12-14T02:21:31;5.30;99.90
9305;DHT22;4690;52.422;13.486;2023-12-14T02:23:57;5.20;99.90
9305;DHT22;4690;52.422;13.486;2023-12-14T02:26:23;5.30;99.90
9305;DHT22;4690;52.422;13.486;2023-12-14T02:28:48;5.10;99.90
9305;DHT22;4690;52.422;13.486;2023-12-14T02:31:14;5.20;99.90
9305;DHT22;4690;52.422;13.486;2023-12-14T02:33:40;5.10;99.90
9305;DHT22;4690;52.422;13.486;2023-12-14T02:36:06;5.10;99.90
9305;DHT22;4690;52.422;13.486;2023-12-14T02:38:32;5.10;99.90
9305;DHT22;4690;52.422;13.486;2023-12-14T02:40:58;5.10;99.90
9305;DHT22;4690;52.422;13.486;2023-12-14T02:43:24;5.10;99.90
9305;DHT22;4690;52.422;13.486;2023-12-14T02:45:50;5.10;99.90
9305;DHT22;4690;52.422;13.486;2023-12-14T02:48:16;5.00;99.90
9305;DHT22;4690;52.422;13.486;2023-12-14T02:50:42;5.00;99.90
9305;DHT22;4690;52.422;13.486;2023-12-14T02:53:07;5.00;99.90
9305;DHT22;4690;52.422;13.486;2023-12-14T02:55:33;5.00;99.90
9305;DHT22;4690;52.422;13.486;2023-12-14T02:57:59;5.10;99.90
9305;DHT22;4690;52.422;13.486;2023-12-14T03:00:24;5.10;99.90
9305;DHT22;4690;52.422;13.486;2023-12-14T03:02:50;5.10;99.90
9305;DHT22;4690;52.422;13.486;2023-12-14T03:05:16;5.10;99.90
9305;DHT22;4690;52.422;13.486;2023-12-14T03:07:42;5.00;99.90
9305;DHT22;4690;52.422;13.486;2023-12-14T03:10:08;5.00;99.90
9305;DHT22;4690;52.422;13.486;2023-12-14T03:12:34;5.00;99.90
9305;DHT22;4690;52.422;13.486;2023-12-14T03:15:00;5.00;99.90
9305;DHT22;4690;52.422;13.486;2023-12-14T03:17:25;5.00;99.90
9305;DHT22;4690;52.422;13.486;2023-12-14T03:19:51;5.00;99.90
9305;DHT22;4690;52.422;13.486;2023-12-14T03:22:17;4.90;99.90
9305;DHT22;4690;52.422;13.486;2023-12-14T03:24:43;5.00;99.90
9305;DHT22;4690;52.422;13.486;2023-12-14T03:27:08;5.00;99.90
9305;DHT22;4690;52.422;13.486;2023-12-14T03:29:35;5.00;99.90
9305;DHT22;4690;52.422;13.486;2023-12-14T03:32:01;5.00;99.90
9305;DHT22;4690;52.422;13.486;2023-12-14T03:34:27;5.00;99.90
9305;DHT22;4690;52.422;13.486;2023-12-14T03:36:52;5.00;99.90
9305;DHT22;4690;52.422;13.486;2023-12-14T03:39:18;5.00;99.90
9305;DHT22;4690;52.422;13.486;2023-12-14T03:41:44;5.10;99.90
9305;DHT22;4690;52.422;13.486;2023-12-14T03:44:10;5.00;99.90
9305;DHT22;4690;52.422;13.486;2023-12-14T03:46:37;4.90;99.90
9305;DHT22;4690;52.422;13.486;2023-12-14T03:49:03;5.00;99.90
9305;DHT22;4690;52.422;13.486;2023-12-14T03:51:29;5.00;99.90
9305;DHT22;4690;52.422;13.486;2023-12-14T03:53:55;4.90;99.90
9305;DHT22;4690;52.422;13.486;2023-12-14T03:56:21;4.90;99.90
9305;DHT22;4690;52.422;13.486;2023-12-14T03:58:47;5.00;99.90
9305;DHT22;4690;52.422;13.486;2023-12-14T04:01:20;4.90;99.90
9305;DHT22;4690;52.422;13.486;2023-12-14T04:03:47;5.00;99.90
9305;DHT22;4690;52.422;13.486;2023-12-14T04:06:13;4.90;99.90
9305;DHT22;4690;52.422;13.486;2023-12-14T04:08:40;5.00;99.90
9305;DHT22;4690;52.422;13.486;2023-12-14T04:11:07;5.00;99.90
9305;DHT22;4690;52.422;13.486;2023-12-14T04:13:33;4.90;99.90
9305;DHT22;4690;52.422;13.486;2023-12-14T04:16:01;4.90;99.90
9305;DHT22;4690;52.422;13.486;2023-12-14T04:18:26;4.80;99.90
9305;DHT22;4690;52.422;13.486;2023-12-14T04:20:52;4.90;99.90
9305;DHT22;4690;52.422;13.486;2023-12-14T04:23:18;5.00;99.90
9305;DHT22;4690;52.422;13.486;2023-12-14T04:25:44;4.90;99.90
9305;DHT22;4690;52.422;13.486;2023-12-14T04:28:10;5.00;99.90
9305;DHT22;4690;52.422;13.486;2023-12-14T04:30:35;5.00;99.90
9305;DHT22;4690;52.422;13.486;2023-12-14T04:33:01;5.00;99.90
9305;DHT22;4690;52.422;13.486;2023-12-14T04:35:27;5.00;99.90
9305;DHT22;4690;52.422;13.486;2023-12-14T04:37:53;5.00;99.90
9305;DHT22;4690;52.422;13.486;2023-12-14T04:40:19;5.00;99.90
9305;DHT22;4690;52.422;13.486;2023-12-14T04:42:45;5.00;99.90
9305;DHT22;4690;52.422;13.486;2023-12-14T04:45:11;5.00;99.90
9305;DHT22;4690;52.422;13.486;2023-12-14T04:47:38;5.00;99.90
9305;DHT22;4690;52.422;13.486;2023-12-14T04:50:04;5.00;99.90
9305;DHT22;4690;52.422;13.486;2023-12-14T04:52:30;5.00;99.90
9305;DHT22;4690;52.422;13.486;2023-12-14T04:54:56;5.00;99.90
9305;DHT22;4690;52.422;13.486;2023-12-14T04:57:22;5.00;99.90
9305;DHT22;4690;52.422;13.486;2023-12-14T04:59:47;5.00;99.90
9305;DHT22;4690;52.422;13.486;2023-12-14T05:02:13;5.00;99.90
9305;DHT22;4690;52.422;13.486;2023-12-14T05:04:39;5.00;99.90
9305;DHT22;4690;52.422;13.486;2023-12-14T05:07:04;4.90;99.90
9305;DHT22;4690;52.422;13.486;2023-12-14T05:09:31;4.90;99.90
9305;DHT22;4690;52.422;13.486;2023-12-14T05:11:56;4.90;99.90
9305;DHT22;4690;52.422;13.486;2023-12-14T05:14:22;4.90;99.90
9305;DHT22;4690;52.422;13.486;2023-12-14T05:16:48;4.90;99.90
9305;DHT22;4690;52.422;13.486;2023-12-14T05:19:14;4.90;99.90
9305;DHT22;4690;52.422;13.486;2023-12-14T05:21:40;5.00;99.90
9305;DHT22;4690;52.422;13.486;2023-12-14T05:24:06;5.00;99.90
9305;DHT22;4690;52.422;13.486;2023-12-14T05:26:31;5.00;99.90
9305;DHT22;4690;52.422;13.486;2023-12-14T05:28:57;5.00;99.90
9305;DHT22;4690;52.422;13.486;2023-12-14T05:31:23;5.00;99.90
9305;DHT22;4690;52.422;13.486;2023-12-14T05:33:49;5.00;99.90
9305;DHT22;4690;52.422;13.486;2023-12-14T05:36:15;5.00;99.90
9305;DHT22;4690;52.422;13.486;2023-12-14T05:38:41;5.10;99.90
9305;DHT22;4690;52.422;13.486;2023-12-14T05:41:07;5.10;99.90
9305;DHT22;4690;52.422;13.486;2023-12-14T05:43:33;5.00;99.90
9305;DHT22;4690;52.422;13.486;2023-12-14T05:45:59;5.00;99.90
9305;DHT22;4690;52.422;13.486;2023-12-14T05:48:25;5.10;99.90
9305;DHT22;4690;52.422;13.486;2023-12-14T05:50:54;5.10;99.90
9305;DHT22;4690;52.422;13.486;2023-12-14T05:53:19;5.00;99.90
9305;DHT22;4690;52.422;13.486;2023-12-14T05:55:45;5.00;99.90
9305;DHT22;4690;52.422;13.486;2023-12-14T05:58:11;5.00;99.90
9305;DHT22;4690;52.422;13.486;2023-12-14T06:00:37;5.00;99.90
9305;DHT22;4690;52.422;13.486;2023-12-14T06:03:03;5.10;99.90
9305;DHT22;4690;52.422;13.486;2023-12-14T06:05:28;5.10;99.90
9305;DHT22;4690;52.422;13.486;2023-12-14T06:07:54;5.10;99.90
9305;DHT22;4690;52.422;13.486;2023-12-14T06:10:20;5.00;99.90
9305;DHT22;4690;52.422;13.486;2023-12-14T06:12:47;5.10;99.90
9305;DHT22;4690;52.422;13.486;2023-12-14T06:15:13;5.10;99.90
9305;DHT22;4690;52.422;13.486;2023-12-14T06:17:39;5.10;99.90
9305;DHT22;4690;52.422;13.486;2023-12-14T06:20:06;5.10;99.90
9305;DHT22;4690;52.422;13.486;2023-12-14T06:22:39;5.10;99.90
9305;DHT22;4690;52.422;13.486;2023-12-14T06:25:05;5.00;99.90
9305;DHT22;4690;52.422;13.486;2023-12-14T06:27:31;5.10;99.90
9305;DHT22;4690;52.422;13.486;2023-12-14T06:29:57;5.00;99.90
9305;DHT22;4690;52.422;13.486;2023-12-14T06:32:22;5.00;99.90
9305;DHT22;4690;52.422;13.486;2023-12-14T06:34:48;5.10;99.90
9305;DHT22;4690;52.422;13.486;2023-12-14T06:37:15;5.00;99.90
9305;DHT22;4690;52.422;13.486;2023-12-14T06:39:41;5.00;99.90
9305;DHT22;4690;52.422;13.486;2023-12-14T06:42:07;5.00;99.90
9305;DHT22;4690;52.422;13.486;2023-12-14T06:44:33;5.00;99.90
9305;DHT22;4690;52.422;13.486;2023-12-14T06:46:59;5.00;99.90
9305;DHT22;4690;52.422;13.486;2023-12-14T06:49:25;5.00;99.90
9305;DHT22;4690;52.422;13.486;2023-12-14T06:51:51;5.00;99.90
9305;DHT22;4690;52.422;13.486;2023-12-14T06:54:17;5.00;99.90
9305;DHT22;4690;52.422;13.486;2023-12-14T06:56:43;5.00;99.90
9305;DHT22;4690;52.422;13.486;2023-12-14T06:59:09;5.10;99.90
9305;DHT22;4690;52.422;13.486;2023-12-14T07:01:34;5.00;99.90
9305;DHT22;4690;52.422;13.486;2023-12-14T07:04:00;5.00;99.90
9305;DHT22;4690;52.422;13.486;2023-12-14T07:06:28;4.90;99.90
9305;DHT22;4690;52.422;13.486;2023-12-14T07:08:54;5.00;99.90
9305;DHT22;4690;52.422;13.486;2023-12-14T07:11:20;5.00;99.90
9305;DHT22;4690;52.422;13.486;2023-12-14T07:13:45;5.00;99.90
9305;DHT22;4690;52.422;13.486;2023-12-14T07:16:12;5.00;99.90
9305;DHT22;4690;52.422;13.486;2023-12-14T07:18:40;5.10;99.90
9305;DHT22;4690;52.422;13.486;2023-12-14T07:21:07;5.00;99.90
9305;DHT22;4690;52.422;13.486;2023-12-14T07:23:34;5.00;99.90
9305;DHT22;4690;52.422;13.486;2023-12-14T07:26:01;5.00;99.90
9305;DHT22;4690;52.422;13.486;2023-12-14T07:28:27;5.00;99.90
9305;DHT22;4690;52.422;13.486;2023-12-14T07:30:53;4.90;99.90
9305;DHT22;4690;52.422;13.486;2023-12-14T07:33:19;5.00;99.90
9305;DHT22;4690;52.422;13.486;2023-12-14T07:35:44;5.00;99.90
9305;DHT22;4690;52.422;13.486;2023-12-14T07:38:11;5.00;99.90
9305;DHT22;4690;52.422;13.486;2023-12-14T07:40:38;5.10;99.90
9305;DHT22;4690;52.422;13.486;2023-12-14T07:43:05;5.00;99.90
9305;DHT22;4690;52.422;13.486;2023-12-14T07:45:31;5.10;99.90
9305;DHT22;4690;52.422;13.486;2023-12-14T07:47:57;5.10;99.90
9305;DHT22;4690;52.422;13.486;2023-12-14T07:50:23;5.10;99.90
9305;DHT22;4690;52.422;13.486;2023-12-14T07:52:49;5.10;99.90
9305;DHT22;4690;52.422;13.486;2023-12-14T07:55:15;5.10;99.90
9305;DHT22;4690;52.422;13.486;2023-12-14T07:57:41;5.10;99.90
9305;DHT22;4690;52.422;13.486;2023-12-14T08:00:07;5.10;99.90
9305;DHT22;4690;52.422;13.486;2023-12-14T08:02:34;5.10;99.90
9305;DHT22;4690;52.422;13.486;2023-12-14T08:05:00;5.10;99.90
9305;DHT22;4690;52.422;13.486;2023-12-14T08:07:26;5.10;99.90
9305;DHT22;4690;52.422;13.486;2023-12-14T08:09:55;5.10;99.90
9305;DHT22;4690;52.422;13.486;2023-12-14T08:12:22;5.10;99.90
9305;DHT22;4690;52.422;13.486;2023-12-14T08:14:48;5.10;99.90
9305;DHT22;4690;52.422;13.486;2023-12-14T08:17:14;5.10;99.90
9305;DHT22;4690;52.422;13.486;2023-12-14T08:19:40;5.10;99.90
9305;DHT22;4690;52.422;13.486;2023-12-14T08:22:06;5.10;99.90
9305;DHT22;4690;52.422;13.486;2023-12-14T08:24:33;5.10;99.90
9305;DHT22;4690;52.422;13.486;2023-12-14T08:26:58;5.10;99.90
9305;DHT22;4690;52.422;13.486;2023-12-14T08:29:24;5.10;99.90
9305;DHT22;4690;52.422;13.486;2023-12-14T08:31:50;5.10;99.90
9305;DHT22;4690;52.422;13.486;2023-12-14T08:34:15;5.10;99.90
9305;DHT22;4690;52.422;13.486;2023-12-14T08:36:41;5.20;99.90
9305;DHT22;4690;52.422;13.486;2023-12-14T08:39:07;5.20;99.90
9305;DHT22;4690;52.422;13.486;2023-12-14T08:41:33;5.10;99.90
9305;DHT22;4690;52.422;13.486;2023-12-14T08:43:58;5.20;99.90
9305;DHT22;4690;52.422;13.486;2023-12-14T08:46:24;5.10;99.90
9305;DHT22;4690;52.422;13.486;2023-12-14T08:48:50;5.10;99.90
9305;DHT22;4690;52.422;13.486;2023-12-14T08:51:17;5.10;99.90
9305;DHT22;4690;52.422;13.486;2023-12-14T08:53:44;5.20;99.90
9305;DHT22;4690;52.422;13.486;2023-12-14T08:56:10;5.10;99.90
9305;DHT22;4690;52.422;13.486;2023-12-14T08:58:36;5.10;99.90
9305;DHT22;4690;52.422;13.486;2023-12-14T09:01:02;5.10;99.90
9305;DHT22;4690;52.422;13.486;2023-12-14T09:03:27;5.20;99.90
9305;DHT22;4690;52.422;13.486;2023-12-14T09:05:53;5.20;99.90
9305;DHT22;4690;52.422;13.486;2023-12-14T09:08:19;5.10;99.90
9305;DHT22;4690;52.422;13.486;2023-12-14T09:10:44;5.10;99.90
9305;DHT22;4690;52.422;13.486;2023-12-14T09:13:10;5.10;99.90
9305;DHT22;4690;52.422;13.486;2023-12-14T09:15:36;5.10;99.90
9305;DHT22;4690;52.422;13.486;2023-12-14T09:18:02;5.10;99.90
9305;DHT22;4690;52.422;13.486;2023-12-14T09:20:28;5.10;99.90
9305;DHT22;4690;52.422;13.486;2023-12-14T09:22:54;5.00;99.90
9305;DHT22;4690;52.422;13.486;2023-12-14T09:25:19;5.10;99.90
9305;DHT22;4690;52.422;13.486;2023-12-14T09:27:45;5.10;99.90
9305;DHT22;4690;52.422;13.486;2023-12-14T09:30:12;5.10;99.90
9305;DHT22;4690;52.422;13.486;2023-12-14T09:32:38;5.10;99.90
9305;DHT22;4690;52.422;13.486;2023-12-14T09:35:05;5.00;99.90
9305;DHT22;4690;52.422;13.486;2023-12-14T09:37:32;5.00;99.90
9305;DHT22;4690;52.422;13.486;2023-12-14T09:39:57;5.00;99.90
9305;DHT22;4690;52.422;13.486;2023-12-14T09:42:24;5.10;99.90
9305;DHT22;4690;52.422;13.486;2023-12-14T09:44:51;5.10;99.90
9305;DHT22;4690;52.422;13.486;2023-12-14T09:47:18;5.10;99.90
9305;DHT22;4690;52.422;13.486;2023-12-14T09:49:45;5.10;99.90
9305;DHT22;4690;52.422;13.486;2023-12-14T09:52:11;5.10;99.90
9305;DHT22;4690;52.422;13.486;2023-12-14T09:54:37;5.10;99.90
9305;DHT22;4690;52.422;13.486;2023-12-14T09:57:03;5.20;99.90
9305;DHT22;4690;52.422;13.486;2023-12-14T09:59:30;5.20;99.90
9305;DHT22;4690;52.422;13.486;2023-12-14T10:02:12;5.20;99.90
9305;DHT22;4690;52.422;13.486;2023-12-14T10:04:38;5.20;99.90
9305;DHT22;4690;52.422;13.486;2023-12-14T10:07:04;5.20;99.90
9305;DHT22;4690;52.422;13.486;2023-12-14T10:09:33;5.10;99.90
9305;DHT22;4690;52.422;13.486;2023-12-14T10:12:03;5.10;99.90
9305;DHT22;4690;52.422;13.486;2023-12-14T10:14:31;5.10;99.90
9305;DHT22;4690;52.422;13.486;2023-12-14T10:16:58;5.10;99.90
9305;DHT22;4690;52.422;13.486;2023-12-14T10:19:24;5.10;99.90
9305;DHT22;4690;52.422;13.486;2023-12-14T10:21:50;5.10;99.90
9305;DHT22;4690;52.422;13.486;2023-12-14T10:24:17;5.30;99.90
9305;DHT22;4690;52.422;13.486;2023-12-14T10:26:47;5.30;99.90
9305;DHT22;4690;52.422;13.486;2023-12-14T10:29:13;5.20;99.90
9305;DHT22;4690;52.422;13.486;2023-12-14T10:31:38;5.20;99.90
9305;DHT22;4690;52.422;13.486;2023-12-14T10:34:04;5.10;99.90
9305;DHT22;4690;52.422;13.486;2023-12-14T10:36:31;5.20;99.90
9305;DHT22;4690;52.422;13.486;2023-12-14T10:38:59;5.20;99.90
9305;DHT22;4690;52.422;13.486;2023-12-14T10:41:26;5.20;99.90
9305;DHT22;4690;52.422;13.486;2023-12-14T10:43:56;5.20;99.90
9305;DHT22;4690;52.422;13.486;2023-12-14T10:46:23;5.20;99.90
9305;DHT22;4690;52.422;13.486;2023-12-14T10:48:51;5.20;99.90
9305;DHT22;4690;52.422;13.486;2023-12-14T10:51:22;5.20;99.90
9305;DHT22;4690;52.422;13.486;2023-12-14T10:53:50;5.20;99.90
9305;DHT22;4690;52.422;13.486;2023-12-14T10:56:17;5.10;99.90
9305;DHT22;4690;52.422;13.486;2023-12-14T10:58:47;5.10;99.90
9305;DHT22;4690;52.422;13.486;2023-12-14T11:01:19;5.20;99.90
9305;DHT22;4690;52.422;13.486;2023-12-14T11:03:49;5.10;99.90
9305;DHT22;4690;52.422;13.486;2023-12-14T11:09:08;5.10;99.90
9305;DHT22;4690;52.422;13.486;2023-12-14T11:11:57;5.10;99.90
9305;DHT22;4690;52.422;13.486;2023-12-14T11:14:25;5.20;99.90
9305;DHT22;4690;52.422;13.486;2023-12-14T11:17:05;5.20;99.90
9305;DHT22;4690;52.422;13.486;2023-12-14T11:19:32;5.20;99.90
9305;DHT22;4690;52.422;13.486;2023-12-14T11:24:34;5.10;99.90
9305;DHT22;4690;52.422;13.486;2023-12-14T11:27:07;5.10;99.90
9305;DHT22;4690;52.422;13.486;2023-12-14T11:29:38;5.10;99.90
9305;DHT22;4690;52.422;13.486;2023-12-14T11:32:07;5.10;99.90
9305;DHT22;4690;52.422;13.486;2023-12-14T11:34:33;5.20;99.90
9305;DHT22;4690;52.422;13.486;2023-12-14T11:36:59;5.20;99.90
9305;DHT22;4690;52.422;13.486;2023-12-14T11:39:24;5.20;99.90
9305;DHT22;4690;52.422;13.486;2023-12-14T11:42:00;5.10;99.90
9305;DHT22;4690;52.422;13.486;2023-12-14T11:44:26;5.20;99.90
9305;DHT22;4690;52.422;13.486;2023-12-14T11:46:52;5.20;99.90
9305;DHT22;4690;52.422;13.486;2023-12-14T11:49:18;5.20;99.90
9305;DHT22;4690;52.422;13.486;2023-12-14T11:51:46;5.30;99.90
9305;DHT22;4690;52.422;13.486;2023-12-14T11:54:13;5.20;99.90
9305;DHT22;4690;52.422;13.486;2023-12-14T11:56:44;5.20;99.90
9305;DHT22;4690;52.422;13.486;2023-12-14T11:59:11;5.30;99.90
9305;DHT22;4690;52.422;13.486;2023-12-14T12:01:37;5.30;99.90
9305;DHT22;4690;52.422;13.486;2023-12-14T12:04:08;5.20;99.90
9305;DHT22;4690;52.422;13.486;2023-12-14T12:06:35;5.20;99.90
9305;DHT22;4690;52.422;13.486;2023-12-14T12:09:01;5.20;99.90
9305;DHT22;4690;52.422;13.486;2023-12-14T12:11:33;5.30;99.90
9305;DHT22;4690;52.422;13.486;2023-12-14T12:13:58;5.30;99.90
9305;DHT22;4690;52.422;13.486;2023-12-14T12:16:25;5.30;99.90
9305;DHT22;4690;52.422;13.486;2023-12-14T12:18:51;5.30;99.90
9305;DHT22;4690;52.422;13.486;2023-12-14T12:21:17;5.20;99.90
9305;DHT22;4690;52.422;13.486;2023-12-14T12:23:43;5.20;99.90
9305;DHT22;4690;52.422;13.486;2023-12-14T12:26:09;5.30;99.90
9305;DHT22;4690;52.422;13.486;2023-12-14T12:28:35;5.30;99.90
9305;DHT22;4690;52.422;13.486;2023-12-14T12:31:00;5.30;99.90
9305;DHT22;4690;52.422;13.486;2023-12-14T12:33:26;5.30;99.90
9305;DHT22;4690;52.422;13.486;2023-12-14T12:35:52;5.30;99.90
9305;DHT22;4690;52.422;13.486;2023-12-14T12:38:19;5.40;99.90
9305;DHT22;4690;52.422;13.486;2023-12-14T12:40:45;5.40;99.90
9305;DHT22;4690;52.422;13.486;2023-12-14T12:43:11;5.40;99.90
9305;DHT22;4690;52.422;13.486;2023-12-14T12:45:39;5.40;99.90
9305;DHT22;4690;52.422;13.486;2023-12-14T12:48:05;5.50;99.90
9305;DHT22;4690;52.422;13.486;2023-12-14T12:50:32;5.40;99.90
9305;DHT22;4690;52.422;13.486;2023-12-14T12:52:59;5.40;99.90
9305;DHT22;4690;52.422;13.486;2023-12-14T12:55:25;5.50;99.90
9305;DHT22;4690;52.422;13.486;2023-12-14T12:57:50;5.50;99.90
9305;DHT22;4690;52.422;13.486;2023-12-14T13:00:16;5.50;99.90
9305;DHT22;4690;52.422;13.486;2023-12-14T13:02:44;5.50;99.90
9305;DHT22;4690;52.422;13.486;2023-12-14T13:05:10;5.50;99.90
9305;DHT22;4690;52.422;13.486;2023-12-14T13:07:37;5.50;99.90
9305;DHT22;4690;52.422;13.486;2023-12-14T13:10:04;5.40;99.90
9305;DHT22;4690;52.422;13.486;2023-12-14T13:12:34;5.40;99.90
9305;DHT22;4690;52.422;13.486;2023-12-14T13:15:00;5.20;99.90
9305;DHT22;4690;52.422;13.486;2023-12-14T13:17:25;5.30;99.90
9305;DHT22;4690;52.422;13.486;2023-12-14T13:19:52;5.40;99.90
9305;DHT22;4690;52.422;13.486;2023-12-14T13:22:18;5.40;99.90
9305;DHT22;4690;52.422;13.486;2023-12-14T13:24:45;5.50;99.90
9305;DHT22;4690;52.422;13.486;2023-12-14T13:27:11;5.50;99.90
9305;DHT22;4690;52.422;13.486;2023-12-14T13:29:37;5.50;99.90
9305;DHT22;4690;52.422;13.486;2023-12-14T13:32:03;5.50;99.90
9305;DHT22;4690;52.422;13.486;2023-12-14T13:34:30;5.50;99.90
9305;DHT22;4690;52.422;13.486;2023-12-14T13:36:56;5.60;99.90
9305;DHT22;4690;52.422;13.486;2023-12-14T13:39:26;5.50;99.90
9305;DHT22;4690;52.422;13.486;2023-12-14T13:41:53;5.50;99.90
9305;DHT22;4690;52.422;13.486;2023-12-14T13:44:19;5.40;99.90
9305;DHT22;4690;52.422;13.486;2023-12-14T13:46:44;5.40;99.90
9305;DHT22;4690;52.422;13.486;2023-12-14T13:49:10;5.30;99.90
9305;DHT22;4690;52.422;13.486;2023-12-14T13:51:36;5.40;99.90
9305;DHT22;4690;52.422;13.486;2023-12-14T13:54:01;5.40;99.90
9305;DHT22;4690;52.422;13.486;2023-12-14T13:56:27;5.40;99.90
9305;DHT22;4690;52.422;13.486;2023-12-14T13:58:53;5.40;99.90
9305;DHT22;4690;52.422;13.486;2023-12-14T14:01:19;5.50;99.90
9305;DHT22;4690;52.422;13.486;2023-12-14T14:03:45;5.40;99.90
9305;DHT22;4690;52.422;13.486;2023-12-14T14:06:12;5.40;99.90
9305;DHT22;4690;52.422;13.486;2023-12-14T14:08:38;5.40;99.90
9305;DHT22;4690;52.422;13.486;2023-12-14T14:11:04;5.40;99.90
9305;DHT22;4690;52.422;13.486;2023-12-14T14:13:30;5.30;99.90
9305;DHT22;4690;52.422;13.486;2023-12-14T14:15:57;5.30;99.90
9305;DHT22;4690;52.422;13.486;2023-12-14T14:18:23;5.30;99.90
9305;DHT22;4690;52.422;13.486;2023-12-14T14:20:49;5.30;99.90
9305;DHT22;4690;52.422;13.486;2023-12-14T14:23:15;5.20;99.90
9305;DHT22;4690;52.422;13.486;2023-12-14T14:25:41;5.20;99.90
9305;DHT22;4690;52.422;13.486;2023-12-14T14:28:07;5.20;99.90
9305;DHT22;4690;52.422;13.486;2023-12-14T14:30:33;5.20;99.90
9305;DHT22;4690;52.422;13.486;2023-12-14T14:32:59;5.20;99.90
9305;DHT22;4690;52.422;13.486;2023-12-14T14:35:24;5.20;99.90
9305;DHT22;4690;52.422;13.486;2023-12-14T14:37:50;5.20;99.90
9305;DHT22;4690;52.422;13.486;2023-12-14T14:40:16;5.10;99.90
9305;DHT22;4690;52.422;13.486;2023-12-14T14:42:43;5.20;99.90
9305;DHT22;4690;52.422;13.486;2023-12-14T14:45:10;5.00;99.90
9305;DHT22;4690;52.422;13.486;2023-12-14T14:47:36;5.10;99.90
9305;DHT22;4690;52.422;13.486;2023-12-14T14:50:03;5.10;99.90
9305;DHT22;4690;52.422;13.486;2023-12-14T14:52:33;5.00;99.90
9305;DHT22;4690;52.422;13.486;2023-12-14T14:55:00;5.00;99.90
9305;DHT22;4690;52.422;13.486;2023-12-14T14:57:26;5.00;99.90
9305;DHT22;4690;52.422;13.486;2023-12-14T14:59:52;5.00;99.90
9305;DHT22;4690;52.422;13.486;2023-12-14T15:02:19;5.00;99.90
9305;DHT22;4690;52.422;13.486;2023-12-14T15:04:45;5.00;99.90
9305;DHT22;4690;52.422;13.486;2023-12-14T15:07:11;5.00;99.90
9305;DHT22;4690;52.422;13.486;2023-12-14T15:09:36;5.00;99.90
9305;DHT22;4690;52.422;13.486;2023-12-14T15:12:02;5.00;99.90
9305;DHT22;4690;52.422;13.486;2023-12-14T15:14:28;5.00;99.90
9305;DHT22;4690;52.422;13.486;2023-12-14T15:16:54;5.00;99.90
9305;DHT22;4690;52.422;13.486;2023-12-14T15:19:20;5.00;99.90
9305;DHT22;4690;52.422;13.486;2023-12-14T15:21:46;5.00;99.90
9305;DHT22;4690;52.422;13.486;2023-12-14T15:24:12;5.00;99.90
9305;DHT22;4690;52.422;13.486;2023-12-14T15:26:38;5.00;99.90
9305;DHT22;4690;52.422;13.486;2023-12-14T15:29:06;5.00;99.90
9305;DHT22;4690;52.422;13.486;2023-12-14T15:31:32;4.90;99.90
9305;DHT22;4690;52.422;13.486;2023-12-14T15:33:58;4.90;99.90
9305;DHT22;4690;52.422;13.486;2023-12-14T15:36:25;4.90;99.90
9305;DHT22;4690;52.422;13.486;2023-12-14T15:38:50;5.00;99.90
9305;DHT22;4690;52.422;13.486;2023-12-14T15:41:16;5.00;99.90
9305;DHT22;4690;52.422;13.486;2023-12-14T15:43:42;5.00;99.90
9305;DHT22;4690;52.422;13.486;2023-12-14T15:46:08;5.00;99.90
9305;DHT22;4690;52.422;13.486;2023-12-14T15:48:34;5.00;99.90
9305;DHT22;4690;52.422;13.486;2023-12-14T15:51:03;5.00;99.90
9305;DHT22;4690;52.422;13.486;2023-12-14T15:53:30;5.00;99.90
9305;DHT22;4690;52.422;13.486;2023-12-14T15:55:56;5.10;99.90
9305;DHT22;4690;52.422;13.486;2023-12-14T15:58:22;5.10;99.90
9305;DHT22;4690;52.422;13.486;2023-12-14T16:00:48;5.00;99.90
9305;DHT22;4690;52.422;13.486;2023-12-14T16:03:14;5.10;99.90
9305;DHT22;4690;52.422;13.486;2023-12-14T16:05:40;5.10;99.90
9305;DHT22;4690;52.422;13.486;2023-12-14T16:08:05;5.10;99.90
9305;DHT22;4690;52.422;13.486;2023-12-14T16:10:33;5.10;99.90